Brookhaven Weather

Current Time: 09:01 Zulu

HWV METARs

Local Time Temperature Dew Point Wind Direction Wind Speed Wind Gust Sky Vis.
1/21/2020 8:56:00 AM -6.1° c -12.8° c 330° 8 kt - CLR 10.0 sm
1/21/2020 7:56:00 AM -6.1° c -13.3° c 330° 7 kt - CLR 10.0 sm
1/21/2020 6:56:00 AM -5.6° c -14.4° c 350° 8 kt - CLR 10.0 sm
1/21/2020 5:56:00 AM -5.6° c -16.1° c 330° 9 kt - CLR 10.0 sm

ISP TAF:

KISP 210837Z 2109/2206 34008KT P6SM SKC 
FM212300 33004KT P6SM SCT250
Weather data provided by aviationweather.gov. Pilots must verify weather before flying.